sensor_id;sensor_type;location;lat;lon;timestamp;P1;durP1;ratioP1;P2;durP2;ratioP2
49241;SDS011;35079;52.704;13.814;2023-10-08T00:01:42;9.93;;;1.95;;
49241;SDS011;35079;52.704;13.814;2023-10-08T00:04:08;10.13;;;2.00;;
49241;SDS011;35079;52.704;13.814;2023-10-08T00:06:43;13.25;;;2.00;;
49241;SDS011;35079;52.704;13.814;2023-10-08T00:09:10;7.45;;;1.88;;
49241;SDS011;35079;52.704;13.814;2023-10-08T00:11:36;12.77;;;2.17;;
49241;SDS011;35079;52.704;13.814;2023-10-08T00:14:03;11.55;;;1.98;;
49241;SDS011;35079;52.704;13.814;2023-10-08T00:16:33;13.70;;;2.30;;
49241;SDS011;35079;52.704;13.814;2023-10-08T00:18:59;8.77;;;2.22;;
49241;SDS011;35079;52.704;13.814;2023-10-08T00:21:33;10.75;;;2.58;;
49241;SDS011;35079;52.704;13.814;2023-10-08T00:24:00;7.00;;;2.15;;
49241;SDS011;35079;52.704;13.814;2023-10-08T00:26:30;14.88;;;2.38;;
49241;SDS011;35079;52.704;13.814;2023-10-08T00:28:56;7.57;;;1.92;;
49241;SDS011;35079;52.704;13.814;2023-10-08T00:31:26;7.78;;;2.40;;
49241;SDS011;35079;52.704;13.814;2023-10-08T00:33:56;8.85;;;2.35;;
49241;SDS011;35079;52.704;13.814;2023-10-08T00:36:23;8.38;;;2.20;;
49241;SDS011;35079;52.704;13.814;2023-10-08T00:38:49;7.68;;;2.00;;
49241;SDS011;35079;52.704;13.814;2023-10-08T00:41:23;9.68;;;2.15;;
49241;SDS011;35079;52.704;13.814;2023-10-08T00:43:53;8.45;;;2.65;;
49241;SDS011;35079;52.704;13.814;2023-10-08T00:46:21;7.70;;;2.47;;
49241;SDS011;35079;52.704;13.814;2023-10-08T00:48:49;9.98;;;2.47;;
49241;SDS011;35079;52.704;13.814;2023-10-08T00:51:19;14.25;;;2.38;;
49241;SDS011;35079;52.704;13.814;2023-10-08T00:53:47;4.55;;;1.98;;
49241;SDS011;35079;52.704;13.814;2023-10-08T00:56:22;9.85;;;2.67;;
49241;SDS011;35079;52.704;13.814;2023-10-08T00:58:51;11.55;;;2.53;;
49241;SDS011;35079;52.704;13.814;2023-10-08T01:01:19;23.05;;;2.72;;
49241;SDS011;35079;52.704;13.814;2023-10-08T01:03:46;17.67;;;2.50;;
49241;SDS011;35079;52.704;13.814;2023-10-08T01:06:14;12.77;;;2.80;;
49241;SDS011;35079;52.704;13.814;2023-10-08T01:08:43;12.68;;;2.20;;
49241;SDS011;35079;52.704;13.814;2023-10-08T01:11:21;16.67;;;2.72;;
49241;SDS011;35079;52.704;13.814;2023-10-08T01:13:56;20.08;;;2.70;;
49241;SDS011;35079;52.704;13.814;2023-10-08T01:16:23;14.27;;;2.50;;
49241;SDS011;35079;52.704;13.814;2023-10-08T01:18:52;12.65;;;3.80;;
49241;SDS011;35079;52.704;13.814;2023-10-08T01:21:19;13.52;;;2.40;;
49241;SDS011;35079;52.704;13.814;2023-10-08T01:23:59;16.42;;;2.60;;
49241;SDS011;35079;52.704;13.814;2023-10-08T01:26:30;16.73;;;2.63;;
49241;SDS011;35079;52.704;13.814;2023-10-08T01:28:57;11.90;;;2.55;;
49241;SDS011;35079;52.704;13.814;2023-10-08T01:31:28;13.50;;;2.40;;
49241;SDS011;35079;52.704;13.814;2023-10-08T01:33:53;19.35;;;3.05;;
49241;SDS011;35079;52.704;13.814;2023-10-08T01:36:21;8.40;;;2.30;;
49241;SDS011;35079;52.704;13.814;2023-10-08T01:38:49;10.70;;;2.50;;
49241;SDS011;35079;52.704;13.814;2023-10-08T01:41:14;13.52;;;2.50;;
49241;SDS011;35079;52.704;13.814;2023-10-08T01:43:53;12.38;;;2.47;;
49241;SDS011;35079;52.704;13.814;2023-10-08T01:46:19;13.88;;;2.80;;
49241;SDS011;35079;52.704;13.814;2023-10-08T01:48:47;18.35;;;3.00;;
49241;SDS011;35079;52.704;13.814;2023-10-08T01:51:14;15.75;;;2.40;;
49241;SDS011;35079;52.704;13.814;2023-10-08T01:53:50;11.05;;;2.20;;
49241;SDS011;35079;52.704;13.814;2023-10-08T01:56:19;15.07;;;2.40;;
49241;SDS011;35079;52.704;13.814;2023-10-08T01:58:44;8.93;;;2.58;;
49241;SDS011;35079;52.704;13.814;2023-10-08T02:01:11;9.25;;;2.47;;
49241;SDS011;35079;52.704;13.814;2023-10-08T02:03:38;11.65;;;2.80;;
49241;SDS011;35079;52.704;13.814;2023-10-08T02:06:04;11.10;;;2.30;;
49241;SDS011;35079;52.704;13.814;2023-10-08T02:08:31;16.92;;;2.63;;
49241;SDS011;35079;52.704;13.814;2023-10-08T02:10:57;11.20;;;3.05;;
49241;SDS011;35079;52.704;13.814;2023-10-08T02:13:22;12.50;;;2.38;;
49241;SDS011;35079;52.704;13.814;2023-10-08T02:15:51;12.25;;;2.60;;
49241;SDS011;35079;52.704;13.814;2023-10-08T02:18:17;11.63;;;2.65;;
49241;SDS011;35079;52.704;13.814;2023-10-08T02:20:43;16.90;;;2.55;;
49241;SDS011;35079;52.704;13.814;2023-10-08T02:23:09;9.10;;;2.65;;
49241;SDS011;35079;52.704;13.814;2023-10-08T02:25:37;15.02;;;2.85;;
49241;SDS011;35079;52.704;13.814;2023-10-08T02:28:05;18.55;;;3.00;;
49241;SDS011;35079;52.704;13.814;2023-10-08T02:30:36;10.95;;;2.72;;
49241;SDS011;35079;52.704;13.814;2023-10-08T02:33:04;12.25;;;2.63;;
49241;SDS011;35079;52.704;13.814;2023-10-08T02:35:42;11.07;;;2.50;;
49241;SDS011;35079;52.704;13.814;2023-10-08T02:38:12;9.07;;;2.13;;
49241;SDS011;35079;52.704;13.814;2023-10-08T02:40:38;13.82;;;2.47;;
49241;SDS011;35079;52.704;13.814;2023-10-08T02:43:10;9.70;;;2.70;;
49241;SDS011;35079;52.704;13.814;2023-10-08T02:45:36;15.07;;;2.40;;
49241;SDS011;35079;52.704;13.814;2023-10-08T02:48:06;10.70;;;2.60;;
49241;SDS011;35079;52.704;13.814;2023-10-08T02:50:40;11.07;;;2.67;;
49241;SDS011;35079;52.704;13.814;2023-10-08T02:53:10;10.40;;;3.22;;
49241;SDS011;35079;52.704;13.814;2023-10-08T02:55:37;11.18;;;2.80;;
49241;SDS011;35079;52.704;13.814;2023-10-08T02:58:12;9.73;;;2.80;;
49241;SDS011;35079;52.704;13.814;2023-10-08T03:00:44;9.88;;;2.72;;
49241;SDS011;35079;52.704;13.814;2023-10-08T03:03:14;11.60;;;2.70;;
49241;SDS011;35079;52.704;13.814;2023-10-08T03:05:44;12.77;;;3.35;;
49241;SDS011;35079;52.704;13.814;2023-10-08T03:08:15;11.88;;;2.65;;
49241;SDS011;35079;52.704;13.814;2023-10-08T03:10:47;12.68;;;2.70;;
49241;SDS011;35079;52.704;13.814;2023-10-08T03:13:14;11.52;;;2.90;;
49241;SDS011;35079;52.704;13.814;2023-10-08T03:15:41;13.60;;;2.75;;
49241;SDS011;35079;52.704;13.814;2023-10-08T03:18:13;11.02;;;3.15;;
49241;SDS011;35079;52.704;13.814;2023-10-08T03:20:40;18.45;;;2.75;;
49241;SDS011;35079;52.704;13.814;2023-10-08T03:23:13;16.40;;;3.20;;
49241;SDS011;35079;52.704;13.814;2023-10-08T03:25:54;11.80;;;2.85;;
49241;SDS011;35079;52.704;13.814;2023-10-08T03:28:34;18.70;;;3.15;;
49241;SDS011;35079;52.704;13.814;2023-10-08T03:31:00;8.07;;;2.67;;
49241;SDS011;35079;52.704;13.814;2023-10-08T03:33:33;13.43;;;2.90;;
49241;SDS011;35079;52.704;13.814;2023-10-08T03:36:02;18.13;;;2.78;;
49241;SDS011;35079;52.704;13.814;2023-10-08T03:38:58;15.40;;;2.75;;
49241;SDS011;35079;52.704;13.814;2023-10-08T03:41:34;16.73;;;3.35;;
49241;SDS011;35079;52.704;13.814;2023-10-08T03:44:05;16.08;;;2.67;;
49241;SDS011;35079;52.704;13.814;2023-10-08T03:46:35;14.25;;;2.60;;
49241;SDS011;35079;52.704;13.814;2023-10-08T03:49:04;12.98;;;3.63;;
49241;SDS011;35079;52.704;13.814;2023-10-08T03:51:50;12.48;;;2.95;;
49241;SDS011;35079;52.704;13.814;2023-10-08T03:54:21;13.07;;;3.30;;
49241;SDS011;35079;52.704;13.814;2023-10-08T03:56:59;15.77;;;2.70;;
49241;SDS011;35079;52.704;13.814;2023-10-08T03:59:26;14.93;;;3.88;;
49241;SDS011;35079;52.704;13.814;2023-10-08T04:01:54;9.50;;;2.47;;
49241;SDS011;35079;52.704;13.814;2023-10-08T04:04:24;10.65;;;2.60;;
49241;SDS011;35079;52.704;13.814;2023-10-08T04:07:14;11.32;;;2.80;;
49241;SDS011;35079;52.704;13.814;2023-10-08T04:09:53;6.78;;;2.63;;
49241;SDS011;35079;52.704;13.814;2023-10-08T04:12:35;14.52;;;3.05;;
49241;SDS011;35079;52.704;13.814;2023-10-08T04:15:08;9.10;;;2.67;;
49241;SDS011;35079;52.704;13.814;2023-10-08T04:17:37;16.35;;;2.72;;
49241;SDS011;35079;52.704;13.814;2023-10-08T04:20:10;10.60;;;2.33;;
49241;SDS011;35079;52.704;13.814;2023-10-08T04:22:55;10.07;;;2.40;;
49241;SDS011;35079;52.704;13.814;2023-10-08T04:25:21;9.02;;;2.40;;
49241;SDS011;35079;52.704;13.814;2023-10-08T04:28:02;7.55;;;1.83;;
49241;SDS011;35079;52.704;13.814;2023-10-08T04:30:43;3.90;;;1.85;;
49241;SDS011;35079;52.704;13.814;2023-10-08T04:33:13;15.23;;;2.65;;
49241;SDS011;35079;52.704;13.814;2023-10-08T04:49:34;7.70;;;2.33;;
49241;SDS011;35079;52.704;13.814;2023-10-08T04:58:14;10.40;;;2.60;;
49241;SDS011;35079;52.704;13.814;2023-10-08T05:01:07;7.00;;;2.35;;
49241;SDS011;35079;52.704;13.814;2023-10-08T05:04:26;6.63;;;2.35;;
49241;SDS011;35079;52.704;13.814;2023-10-08T05:06:57;7.00;;;2.28;;
49241;SDS011;35079;52.704;13.814;2023-10-08T05:09:29;6.53;;;2.17;;
49241;SDS011;35079;52.704;13.814;2023-10-08T05:12:13;9.93;;;2.45;;
49241;SDS011;35079;52.704;13.814;2023-10-08T05:14:57;8.23;;;2.60;;
49241;SDS011;35079;52.704;13.814;2023-10-08T05:17:43;13.50;;;3.38;;
49241;SDS011;35079;52.704;13.814;2023-10-08T05:20:18;10.07;;;2.80;;
49241;SDS011;35079;52.704;13.814;2023-10-08T05:23:06;10.73;;;2.67;;
49241;SDS011;35079;52.704;13.814;2023-10-08T05:25:54;12.18;;;2.65;;
49241;SDS011;35079;52.704;13.814;2023-10-08T05:28:30;6.57;;;2.40;;
49241;SDS011;35079;52.704;13.814;2023-10-08T05:31:06;10.02;;;3.10;;
49241;SDS011;35079;52.704;13.814;2023-10-08T05:33:39;6.40;;;2.10;;
49241;SDS011;35079;52.704;13.814;2023-10-08T05:36:23;9.63;;;2.50;;
49241;SDS011;35079;52.704;13.814;2023-10-08T05:39:15;7.45;;;2.28;;
49241;SDS011;35079;52.704;13.814;2023-10-08T05:42:06;7.80;;;2.28;;
49241;SDS011;35079;52.704;13.814;2023-10-08T05:44:43;7.75;;;2.40;;
49241;SDS011;35079;52.704;13.814;2023-10-08T05:47:28;7.15;;;2.50;;
49241;SDS011;35079;52.704;13.814;2023-10-08T05:49:54;6.30;;;2.30;;
49241;SDS011;35079;52.704;13.814;2023-10-08T05:52:40;8.27;;;2.53;;
49241;SDS011;35079;52.704;13.814;2023-10-08T05:55:44;11.10;;;2.17;;
49241;SDS011;35079;52.704;13.814;2023-10-08T05:58:35;7.75;;;2.35;;
49241;SDS011;35079;52.704;13.814;2023-10-08T06:01:11;13.00;;;2.40;;
49241;SDS011;35079;52.704;13.814;2023-10-08T06:04:10;9.13;;;2.28;;
49241;SDS011;35079;52.704;13.814;2023-10-08T06:06:59;6.47;;;2.78;;
49241;SDS011;35079;52.704;13.814;2023-10-08T06:10:00;10.55;;;2.50;;
49241;SDS011;35079;52.704;13.814;2023-10-08T06:12:42;5.57;;;2.40;;
49241;SDS011;35079;52.704;13.814;2023-10-08T06:15:43;7.63;;;2.50;;
49241;SDS011;35079;52.704;13.814;2023-10-08T06:33:12;6.65;;;2.10;;
49241;SDS011;35079;52.704;13.814;2023-10-08T06:35:39;11.20;;;2.75;;
49241;SDS011;35079;52.704;13.814;2023-10-08T06:48:24;5.38;;;2.20;;
49241;SDS011;35079;52.704;13.814;2023-10-08T06:50:51;4.20;;;2.20;;
49241;SDS011;35079;52.704;13.814;2023-10-08T06:53:33;4.03;;;1.92;;
49241;SDS011;35079;52.704;13.814;2023-10-08T06:55:59;7.72;;;2.10;;
49241;SDS011;35079;52.704;13.814;2023-10-08T06:58:29;6.53;;;2.03;;
49241;SDS011;35079;52.704;13.814;2023-10-08T07:00:58;6.63;;;1.83;;
49241;SDS011;35079;52.704;13.814;2023-10-08T07:03:29;3.25;;;1.88;;
49241;SDS011;35079;52.704;13.814;2023-10-08T07:05:56;4.00;;;2.08;;
49241;SDS011;35079;52.704;13.814;2023-10-08T07:08:27;6.95;;;2.00;;
49241;SDS011;35079;52.704;13.814;2023-10-08T07:10:56;7.25;;;1.88;;
49241;SDS011;35079;52.704;13.814;2023-10-08T07:13:24;3.78;;;1.95;;
49241;SDS011;35079;52.704;13.814;2023-10-08T07:15:51;5.20;;;2.00;;
49241;SDS011;35079;52.704;13.814;2023-10-08T07:18:17;5.00;;;1.73;;
49241;SDS011;35079;52.704;13.814;2023-10-08T07:20:55;4.50;;;1.45;;
49241;SDS011;35079;52.704;13.814;2023-10-08T07:23:25;2.88;;;1.50;;
49241;SDS011;35079;52.704;13.814;2023-10-08T07:25:55;2.92;;;1.30;;
49241;SDS011;35079;52.704;13.814;2023-10-08T07:28:27;6.38;;;2.00;;
49241;SDS011;35079;52.704;13.814;2023-10-08T07:30:54;3.88;;;1.40;;
49241;SDS011;35079;52.704;13.814;2023-10-08T07:33:23;5.70;;;1.50;;
49241;SDS011;35079;52.704;13.814;2023-10-08T07:35:50;3.40;;;1.50;;
49241;SDS011;35079;52.704;13.814;2023-10-08T07:38:22;4.88;;;1.70;;
49241;SDS011;35079;52.704;13.814;2023-10-08T07:44:46;6.60;;;1.63;;
49241;SDS011;35079;52.704;13.814;2023-10-08T07:51:02;5.57;;;1.95;;
49241;SDS011;35079;52.704;13.814;2023-10-08T07:53:28;2.40;;;1.23;;
49241;SDS011;35079;52.704;13.814;2023-10-08T07:56:06;3.58;;;1.30;;
49241;SDS011;35079;52.704;13.814;2023-10-08T07:58:34;2.22;;;1.13;;
49241;SDS011;35079;52.704;13.814;2023-10-08T08:01:03;5.65;;;1.30;;
49241;SDS011;35079;52.704;13.814;2023-10-08T08:03:34;2.65;;;1.33;;
49241;SDS011;35079;52.704;13.814;2023-10-08T08:06:02;3.55;;;1.38;;
49241;SDS011;35079;52.704;13.814;2023-10-08T08:08:33;1.98;;;1.00;;
49241;SDS011;35079;52.704;13.814;2023-10-08T08:11:00;3.08;;;1.20;;
49241;SDS011;35079;52.704;13.814;2023-10-08T08:13:35;3.55;;;1.40;;
49241;SDS011;35079;52.704;13.814;2023-10-08T08:16:01;4.32;;;1.00;;
49241;SDS011;35079;52.704;13.814;2023-10-08T08:18:42;3.17;;;1.20;;
49241;SDS011;35079;52.704;13.814;2023-10-08T08:21:09;4.70;;;1.27;;
49241;SDS011;35079;52.704;13.814;2023-10-08T08:23:40;1.60;;;0.90;;
49241;SDS011;35079;52.704;13.814;2023-10-08T08:26:19;2.33;;;1.20;;
49241;SDS011;35079;52.704;13.814;2023-10-08T08:28:54;1.77;;;1.15;;
49241;SDS011;35079;52.704;13.814;2023-10-08T08:31:24;2.30;;;1.00;;
49241;SDS011;35079;52.704;13.814;2023-10-08T08:33:51;2.65;;;0.95;;
49241;SDS011;35079;52.704;13.814;2023-10-08T08:36:26;4.40;;;1.25;;
49241;SDS011;35079;52.704;13.814;2023-10-08T08:38:52;2.80;;;1.00;;
49241;SDS011;35079;52.704;13.814;2023-10-08T08:41:19;4.07;;;1.10;;
49241;SDS011;35079;52.704;13.814;2023-10-08T08:43:52;4.20;;;0.82;;
49241;SDS011;35079;52.704;13.814;2023-10-08T08:46:30;4.60;;;1.00;;
49241;SDS011;35079;52.704;13.814;2023-10-08T08:49:02;3.13;;;1.00;;
49241;SDS011;35079;52.704;13.814;2023-10-08T08:51:32;1.50;;;1.00;;
49241;SDS011;35079;52.704;13.814;2023-10-08T08:54:01;1.80;;;0.80;;
49241;SDS011;35079;52.704;13.814;2023-10-08T08:56:34;1.77;;;0.82;;
49241;SDS011;35079;52.704;13.814;2023-10-08T08:59:04;3.50;;;1.02;;
49241;SDS011;35079;52.704;13.814;2023-10-08T09:01:30;2.63;;;0.80;;
49241;SDS011;35079;52.704;13.814;2023-10-08T09:04:02;1.15;;;0.90;;
49241;SDS011;35079;52.704;13.814;2023-10-08T09:06:36;1.42;;;0.90;;
49241;SDS011;35079;52.704;13.814;2023-10-08T09:09:06;2.53;;;0.80;;
49241;SDS011;35079;52.704;13.814;2023-10-08T09:11:50;1.33;;;0.80;;
49241;SDS011;35079;52.704;13.814;2023-10-08T09:14:20;1.45;;;0.80;;
49241;SDS011;35079;52.704;13.814;2023-10-08T09:16:47;2.30;;;0.85;;
49241;SDS011;35079;52.704;13.814;2023-10-08T09:22:07;3.53;;;0.95;;
49241;SDS011;35079;52.704;13.814;2023-10-08T09:24:38;1.75;;;0.88;;
49241;SDS011;35079;52.704;13.814;2023-10-08T09:27:05;1.58;;;0.73;;
49241;SDS011;35079;52.704;13.814;2023-10-08T09:29:32;3.05;;;0.80;;
49241;SDS011;35079;52.704;13.814;2023-10-08T09:32:04;2.63;;;1.00;;
49241;SDS011;35079;52.704;13.814;2023-10-08T09:34:31;3.00;;;1.08;;
49241;SDS011;35079;52.704;13.814;2023-10-08T09:36:58;2.90;;;0.85;;
49241;SDS011;35079;52.704;13.814;2023-10-08T09:39:25;1.90;;;0.60;;
49241;SDS011;35079;52.704;13.814;2023-10-08T09:41:56;1.10;;;0.85;;
49241;SDS011;35079;52.704;13.814;2023-10-08T09:44:23;3.40;;;0.90;;
49241;SDS011;35079;52.704;13.814;2023-10-08T09:46:54;1.50;;;0.82;;
49241;SDS011;35079;52.704;13.814;2023-10-08T09:49:27;0.75;;;0.60;;
49241;SDS011;35079;52.704;13.814;2023-10-08T09:51:59;1.75;;;0.82;;
49241;SDS011;35079;52.704;13.814;2023-10-08T09:54:31;2.17;;;0.57;;
49241;SDS011;35079;52.704;13.814;2023-10-08T09:57:09;0.70;;;0.70;;
49241;SDS011;35079;52.704;13.814;2023-10-08T09:59:36;0.75;;;0.60;;
49241;SDS011;35079;52.704;13.814;2023-10-08T10:02:06;1.70;;;0.70;;
49241;SDS011;35079;52.704;13.814;2023-10-08T10:05:11;2.47;;;0.70;;
49241;SDS011;35079;52.704;13.814;2023-10-08T10:08:33;0.95;;;0.70;;
49241;SDS011;35079;52.704;13.814;2023-10-08T10:24:56;0.95;;;0.60;;
49241;SDS011;35079;52.704;13.814;2023-10-08T10:27:23;2.63;;;1.02;;
49241;SDS011;35079;52.704;13.814;2023-10-08T10:29:50;1.92;;;0.60;;
49241;SDS011;35079;52.704;13.814;2023-10-08T10:32:17;1.48;;;0.90;;
49241;SDS011;35079;52.704;13.814;2023-10-08T10:34:46;1.55;;;0.60;;
49241;SDS011;35079;52.704;13.814;2023-10-08T10:40:12;1.55;;;0.68;;
49241;SDS011;35079;52.704;13.814;2023-10-08T10:43:11;1.05;;;0.80;;
49241;SDS011;35079;52.704;13.814;2023-10-08T10:45:41;1.38;;;0.90;;
49241;SDS011;35079;52.704;13.814;2023-10-08T10:48:21;1.60;;;0.75;;
49241;SDS011;35079;52.704;13.814;2023-10-08T10:50:57;0.98;;;0.90;;
49241;SDS011;35079;52.704;13.814;2023-10-08T10:56:49;1.30;;;0.60;;
49241;SDS011;35079;52.704;13.814;2023-10-08T10:59:37;0.60;;;0.60;;
49241;SDS011;35079;52.704;13.814;2023-10-08T11:02:03;1.38;;;0.70;;
49241;SDS011;35079;52.704;13.814;2023-10-08T11:05:04;2.00;;;0.93;;
49241;SDS011;35079;52.704;13.814;2023-10-08T11:14:18;0.63;;;0.60;;
49241;SDS011;35079;52.704;13.814;2023-10-08T11:19:36;1.48;;;0.82;;
49241;SDS011;35079;52.704;13.814;2023-10-08T11:22:14;0.98;;;0.68;;
49241;SDS011;35079;52.704;13.814;2023-10-08T11:24:44;1.50;;;0.80;;
49241;SDS011;35079;52.704;13.814;2023-10-08T11:27:17;1.80;;;0.80;;
49241;SDS011;35079;52.704;13.814;2023-10-08T11:29:53;1.58;;;0.80;;
49241;SDS011;35079;52.704;13.814;2023-10-08T11:32:23;1.73;;;0.70;;
49241;SDS011;35079;52.704;13.814;2023-10-08T11:34:56;0.85;;;0.60;;
49241;SDS011;35079;52.704;13.814;2023-10-08T11:45:12;2.85;;;0.90;;
49241;SDS011;35079;52.704;13.814;2023-10-08T11:47:33;0.98;;;0.75;;
49241;SDS011;35079;52.704;13.814;2023-10-08T11:50:55;0.90;;;0.70;;
49241;SDS011;35079;52.704;13.814;2023-10-08T11:57:13;3.77;;;0.90;;
49241;SDS011;35079;52.704;13.814;2023-10-08T11:59:47;1.25;;;0.70;;
49241;SDS011;35079;52.704;13.814;2023-10-08T12:02:22;1.25;;;0.77;;
49241;SDS011;35079;52.704;13.814;2023-10-08T12:05:30;0.95;;;0.80;;
49241;SDS011;35079;52.704;13.814;2023-10-08T12:07:57;3.35;;;0.88;;
49241;SDS011;35079;52.704;13.814;2023-10-08T12:17:15;1.10;;;0.90;;
49241;SDS011;35079;52.704;13.814;2023-10-08T12:20:07;1.50;;;0.65;;
49241;SDS011;35079;52.704;13.814;2023-10-08T12:22:59;1.00;;;0.70;;
49241;SDS011;35079;52.704;13.814;2023-10-08T12:25:25;2.30;;;1.05;;
49241;SDS011;35079;52.704;13.814;2023-10-08T12:27:54;2.78;;;1.00;;
49241;SDS011;35079;52.704;13.814;2023-10-08T12:30:23;1.83;;;0.80;;
49241;SDS011;35079;52.704;13.814;2023-10-08T12:32:55;2.15;;;1.02;;
49241;SDS011;35079;52.704;13.814;2023-10-08T12:35:22;2.50;;;0.80;;
49241;SDS011;35079;52.704;13.814;2023-10-08T12:37:49;3.05;;;0.70;;
49241;SDS011;35079;52.704;13.814;2023-10-08T12:40:15;1.38;;;0.88;;
49241;SDS011;35079;52.704;13.814;2023-10-08T12:42:58;1.08;;;0.90;;
49241;SDS011;35079;52.704;13.814;2023-10-08T12:45:25;1.48;;;0.80;;
49241;SDS011;35079;52.704;13.814;2023-10-08T12:47:52;0.95;;;0.90;;
49241;SDS011;35079;52.704;13.814;2023-10-08T12:50:19;1.48;;;0.70;;
49241;SDS011;35079;52.704;13.814;2023-10-08T12:52:54;1.00;;;0.70;;
49241;SDS011;35079;52.704;13.814;2023-10-08T12:55:21;2.08;;;0.70;;
49241;SDS011;35079;52.704;13.814;2023-10-08T12:57:53;1.42;;;0.80;;
49241;SDS011;35079;52.704;13.814;2023-10-08T13:00:21;0.80;;;0.70;;
49241;SDS011;35079;52.704;13.814;2023-10-08T13:02:49;2.17;;;1.00;;
49241;SDS011;35079;52.704;13.814;2023-10-08T13:05:19;1.05;;;0.63;;
49241;SDS011;35079;52.704;13.814;2023-10-08T13:07:54;1.48;;;0.77;;
49241;SDS011;35079;52.704;13.814;2023-10-08T13:10:24;3.28;;;0.93;;
49241;SDS011;35079;52.704;13.814;2023-10-08T13:20:14;1.17;;;0.80;;
49241;SDS011;35079;52.704;13.814;2023-10-08T13:29:33;0.98;;;0.63;;
49241;SDS011;35079;52.704;13.814;2023-10-08T13:31:59;1.73;;;0.65;;
49241;SDS011;35079;52.704;13.814;2023-10-08T13:34:24;2.42;;;0.65;;
49241;SDS011;35079;52.704;13.814;2023-10-08T13:37:00;0.73;;;0.60;;
49241;SDS011;35079;52.704;13.814;2023-10-08T13:42:34;4.05;;;1.20;;
49241;SDS011;35079;52.704;13.814;2023-10-08T13:44:59;0.90;;;0.80;;
49241;SDS011;35079;52.704;13.814;2023-10-08T13:47:33;2.58;;;0.80;;
49241;SDS011;35079;52.704;13.814;2023-10-08T13:49:59;2.17;;;0.75;;
49241;SDS011;35079;52.704;13.814;2023-10-08T13:52:25;1.75;;;0.80;;
49241;SDS011;35079;52.704;13.814;2023-10-08T13:54:54;1.42;;;0.77;;
49241;SDS011;35079;52.704;13.814;2023-10-08T13:57:20;1.95;;;0.82;;
49241;SDS011;35079;52.704;13.814;2023-10-08T13:59:46;2.15;;;0.70;;
49241;SDS011;35079;52.704;13.814;2023-10-08T14:02:13;0.95;;;0.80;;
49241;SDS011;35079;52.704;13.814;2023-10-08T14:04:42;2.20;;;0.82;;
49241;SDS011;35079;52.704;13.814;2023-10-08T14:07:09;3.97;;;1.00;;
49241;SDS011;35079;52.704;13.814;2023-10-08T14:09:37;2.17;;;0.93;;
49241;SDS011;35079;52.704;13.814;2023-10-08T14:12:06;2.17;;;0.80;;
49241;SDS011;35079;52.704;13.814;2023-10-08T14:14:32;1.38;;;0.80;;
49241;SDS011;35079;52.704;13.814;2023-10-08T14:16:59;0.85;;;0.70;;
49241;SDS011;35079;52.704;13.814;2023-10-08T14:19:31;2.03;;;0.80;;
49241;SDS011;35079;52.704;13.814;2023-10-08T14:22:26;2.60;;;0.88;;
49241;SDS011;35079;52.704;13.814;2023-10-08T14:24:52;1.02;;;0.73;;
49241;SDS011;35079;52.704;13.814;2023-10-08T14:27:29;0.88;;;0.82;;
49241;SDS011;35079;52.704;13.814;2023-10-08T14:30:06;1.73;;;0.95;;
49241;SDS011;35079;52.704;13.814;2023-10-08T14:32:53;1.85;;;0.80;;
49241;SDS011;35079;52.704;13.814;2023-10-08T14:49:02;6.20;;;0.82;;
49241;SDS011;35079;52.704;13.814;2023-10-08T14:51:47;0.95;;;0.88;;
49241;SDS011;35079;52.704;13.814;2023-10-08T14:57:45;1.70;;;0.85;;
49241;SDS011;35079;52.704;13.814;2023-10-08T15:00:11;0.60;;;0.60;;
49241;SDS011;35079;52.704;13.814;2023-10-08T15:08:46;2.20;;;0.93;;
49241;SDS011;35079;52.704;13.814;2023-10-08T15:11:15;1.00;;;0.90;;
49241;SDS011;35079;52.704;13.814;2023-10-08T15:13:41;3.40;;;0.80;;
49241;SDS011;35079;52.704;13.814;2023-10-08T15:16:41;1.98;;;0.80;;
49241;SDS011;35079;52.704;13.814;2023-10-08T15:19:12;2.25;;;0.82;;
49241;SDS011;35079;52.704;13.814;2023-10-08T15:21:40;1.20;;;0.85;;
49241;SDS011;35079;52.704;13.814;2023-10-08T15:24:15;1.23;;;0.80;;
49241;SDS011;35079;52.704;13.814;2023-10-08T15:27:35;4.68;;;1.02;;
49241;SDS011;35079;52.704;13.814;2023-10-08T15:32:14;2.78;;;0.80;;
49241;SDS011;35079;52.704;13.814;2023-10-08T15:34:58;2.03;;;0.60;;
49241;SDS011;35079;52.704;13.814;2023-10-08T15:37:24;1.85;;;0.82;;
49241;SDS011;35079;52.704;13.814;2023-10-08T15:39:49;3.40;;;0.98;;
49241;SDS011;35079;52.704;13.814;2023-10-08T15:42:15;0.73;;;0.73;;
49241;SDS011;35079;52.704;13.814;2023-10-08T15:44:43;2.85;;;0.80;;
49241;SDS011;35079;52.704;13.814;2023-10-08T15:47:08;2.63;;;0.88;;
49241;SDS011;35079;52.704;13.814;2023-10-08T15:49:34;1.08;;;0.80;;
49241;SDS011;35079;52.704;13.814;2023-10-08T15:51:59;1.73;;;0.80;;
49241;SDS011;35079;52.704;13.814;2023-10-08T15:54:25;1.35;;;0.70;;
49241;SDS011;35079;52.704;13.814;2023-10-08T15:56:51;2.65;;;0.80;;
49241;SDS011;35079;52.704;13.814;2023-10-08T15:59:17;1.13;;;0.73;;
49241;SDS011;35079;52.704;13.814;2023-10-08T16:01:42;1.48;;;0.90;;
49241;SDS011;35079;52.704;13.814;2023-10-08T16:04:11;1.95;;;0.80;;
49241;SDS011;35079;52.704;13.814;2023-10-08T16:06:37;1.50;;;0.75;;
49241;SDS011;35079;52.704;13.814;2023-10-08T16:09:02;1.52;;;0.65;;
49241;SDS011;35079;52.704;13.814;2023-10-08T16:11:30;1.02;;;0.70;;
49241;SDS011;35079;52.704;13.814;2023-10-08T16:13:55;0.70;;;0.70;;
49241;SDS011;35079;52.704;13.814;2023-10-08T16:16:21;3.45;;;0.80;;
49241;SDS011;35079;52.704;13.814;2023-10-08T16:18:47;1.13;;;1.02;;
49241;SDS011;35079;52.704;13.814;2023-10-08T16:21:13;3.67;;;1.10;;
49241;SDS011;35079;52.704;13.814;2023-10-08T16:23:39;2.58;;;0.80;;
49241;SDS011;35079;52.704;13.814;2023-10-08T16:26:06;2.80;;;0.82;;
49241;SDS011;35079;52.704;13.814;2023-10-08T16:28:34;1.98;;;0.73;;
49241;SDS011;35079;52.704;13.814;2023-10-08T16:31:00;2.25;;;0.95;;
49241;SDS011;35079;52.704;13.814;2023-10-08T16:33:29;1.25;;;0.90;;
49241;SDS011;35079;52.704;13.814;2023-10-08T16:35:55;2.10;;;0.90;;
49241;SDS011;35079;52.704;13.814;2023-10-08T16:38:21;2.97;;;0.90;;
49241;SDS011;35079;52.704;13.814;2023-10-08T16:40:47;3.63;;;1.20;;
49241;SDS011;35079;52.704;13.814;2023-10-08T16:43:13;2.72;;;0.82;;
49241;SDS011;35079;52.704;13.814;2023-10-08T16:45:44;1.85;;;0.82;;
49241;SDS011;35079;52.704;13.814;2023-10-08T16:48:11;2.72;;;1.20;;
49241;SDS011;35079;52.704;13.814;2023-10-08T16:50:37;3.63;;;1.10;;
49241;SDS011;35079;52.704;13.814;2023-10-08T16:53:03;2.22;;;1.17;;
49241;SDS011;35079;52.704;13.814;2023-10-08T16:55:28;4.20;;;0.82;;
49241;SDS011;35079;52.704;13.814;2023-10-08T16:57:56;2.55;;;0.98;;
49241;SDS011;35079;52.704;13.814;2023-10-08T17:00:22;1.17;;;0.80;;
49241;SDS011;35079;52.704;13.814;2023-10-08T17:02:51;2.97;;;0.82;;
49241;SDS011;35079;52.704;13.814;2023-10-08T17:05:16;2.17;;;0.98;;
49241;SDS011;35079;52.704;13.814;2023-10-08T17:07:43;3.40;;;0.90;;
49241;SDS011;35079;52.704;13.814;2023-10-08T17:10:10;2.58;;;0.90;;
49241;SDS011;35079;52.704;13.814;2023-10-08T17:12:36;1.67;;;0.75;;
49241;SDS011;35079;52.704;13.814;2023-10-08T17:15:02;1.08;;;0.95;;
49241;SDS011;35079;52.704;13.814;2023-10-08T17:17:31;1.00;;;0.90;;
49241;SDS011;35079;52.704;13.814;2023-10-08T17:19:56;1.45;;;1.15;;
49241;SDS011;35079;52.704;13.814;2023-10-08T17:22:22;1.52;;;0.80;;
49241;SDS011;35079;52.704;13.814;2023-10-08T17:24:50;1.25;;;0.90;;
49241;SDS011;35079;52.704;13.814;2023-10-08T17:27:15;1.65;;;0.82;;